sensor_id;sensor_type;location;lat;lon;timestamp;P1;durP1;ratioP1;P2;durP2;ratioP2
61907;SDS011;47864;52.526;19.672;2023-12-04T00:01:32;38.45;;;26.00;;
61907;SDS011;47864;52.526;19.672;2023-12-04T00:03:34;46.15;;;29.23;;
61907;SDS011;47864;52.526;19.672;2023-12-04T00:05:43;42.65;;;26.00;;
61907;SDS011;47864;52.526;19.672;2023-12-04T00:07:45;38.38;;;25.08;;
61907;SDS011;47864;52.526;19.672;2023-12-04T00:09:46;36.30;;;24.00;;
61907;SDS011;47864;52.526;19.672;2023-12-04T00:11:48;39.00;;;26.05;;
61907;SDS011;47864;52.526;19.672;2023-12-04T00:13:49;39.92;;;25.17;;
61907;SDS011;47864;52.526;19.672;2023-12-04T00:15:51;40.58;;;25.55;;
61907;SDS011;47864;52.526;19.672;2023-12-04T00:17:53;40.50;;;24.05;;
61907;SDS011;47864;52.526;19.672;2023-12-04T00:19:54;38.67;;;23.70;;
61907;SDS011;47864;52.526;19.672;2023-12-04T00:21:56;39.70;;;23.95;;
61907;SDS011;47864;52.526;19.672;2023-12-04T00:23:58;36.40;;;23.48;;
61907;SDS011;47864;52.526;19.672;2023-12-04T00:25:59;38.08;;;23.05;;
61907;SDS011;47864;52.526;19.672;2023-12-04T00:28:01;39.85;;;24.67;;
61907;SDS011;47864;52.526;19.672;2023-12-04T00:30:03;55.83;;;29.35;;
61907;SDS011;47864;52.526;19.672;2023-12-04T00:32:05;58.28;;;30.48;;
61907;SDS011;47864;52.526;19.672;2023-12-04T00:34:07;47.75;;;27.33;;
61907;SDS011;47864;52.526;19.672;2023-12-04T00:36:09;42.05;;;24.95;;
61907;SDS011;47864;52.526;19.672;2023-12-04T00:38:11;38.75;;;24.83;;
61907;SDS011;47864;52.526;19.672;2023-12-04T00:40:13;36.25;;;23.63;;
61907;SDS011;47864;52.526;19.672;2023-12-04T00:42:14;41.13;;;24.77;;
61907;SDS011;47864;52.526;19.672;2023-12-04T00:44:16;40.85;;;26.25;;
61907;SDS011;47864;52.526;19.672;2023-12-04T00:46:17;40.55;;;25.77;;
61907;SDS011;47864;52.526;19.672;2023-12-04T00:48:19;47.58;;;29.30;;
61907;SDS011;47864;52.526;19.672;2023-12-04T00:50:21;46.22;;;26.75;;
61907;SDS011;47864;52.526;19.672;2023-12-04T00:52:22;38.15;;;24.60;;
61907;SDS011;47864;52.526;19.672;2023-12-04T00:54:24;42.25;;;25.67;;
61907;SDS011;47864;52.526;19.672;2023-12-04T00:56:27;38.65;;;24.75;;
61907;SDS011;47864;52.526;19.672;2023-12-04T00:58:30;39.90;;;24.95;;
61907;SDS011;47864;52.526;19.672;2023-12-04T01:00:31;35.90;;;23.45;;
61907;SDS011;47864;52.526;19.672;2023-12-04T01:02:33;46.95;;;26.23;;
61907;SDS011;47864;52.526;19.672;2023-12-04T01:04:35;38.13;;;23.13;;
61907;SDS011;47864;52.526;19.672;2023-12-04T01:06:37;35.90;;;22.63;;
61907;SDS011;47864;52.526;19.672;2023-12-04T01:08:38;34.97;;;22.13;;
61907;SDS011;47864;52.526;19.672;2023-12-04T01:10:40;33.05;;;21.50;;
61907;SDS011;47864;52.526;19.672;2023-12-04T01:12:42;39.90;;;22.75;;
61907;SDS011;47864;52.526;19.672;2023-12-04T01:14:43;45.17;;;27.50;;
61907;SDS011;47864;52.526;19.672;2023-12-04T01:16:45;37.20;;;22.40;;
61907;SDS011;47864;52.526;19.672;2023-12-04T01:18:46;33.60;;;20.63;;
61907;SDS011;47864;52.526;19.672;2023-12-04T01:20:48;36.92;;;22.50;;
61907;SDS011;47864;52.526;19.672;2023-12-04T01:22:50;27.95;;;18.92;;
61907;SDS011;47864;52.526;19.672;2023-12-04T01:24:51;31.83;;;20.55;;
61907;SDS011;47864;52.526;19.672;2023-12-04T01:26:53;29.25;;;19.67;;
61907;SDS011;47864;52.526;19.672;2023-12-04T01:28:55;26.83;;;18.58;;
61907;SDS011;47864;52.526;19.672;2023-12-04T01:30:56;28.08;;;18.63;;
61907;SDS011;47864;52.526;19.672;2023-12-04T01:32:58;26.85;;;18.45;;
61907;SDS011;47864;52.526;19.672;2023-12-04T01:35:01;29.55;;;19.40;;
61907;SDS011;47864;52.526;19.672;2023-12-04T01:37:03;26.85;;;18.98;;
61907;SDS011;47864;52.526;19.672;2023-12-04T01:39:05;25.08;;;18.40;;
61907;SDS011;47864;52.526;19.672;2023-12-04T01:41:06;28.95;;;18.83;;
61907;SDS011;47864;52.526;19.672;2023-12-04T01:43:08;29.00;;;18.58;;
61907;SDS011;47864;52.526;19.672;2023-12-04T01:45:10;29.77;;;19.20;;
61907;SDS011;47864;52.526;19.672;2023-12-04T01:47:11;27.02;;;18.85;;
61907;SDS011;47864;52.526;19.672;2023-12-04T01:49:13;29.83;;;20.20;;
61907;SDS011;47864;52.526;19.672;2023-12-04T01:51:15;29.33;;;18.90;;
61907;SDS011;47864;52.526;19.672;2023-12-04T01:53:18;29.63;;;20.10;;
61907;SDS011;47864;52.526;19.672;2023-12-04T01:55:20;30.67;;;21.63;;
61907;SDS011;47864;52.526;19.672;2023-12-04T01:57:22;29.58;;;20.33;;
61907;SDS011;47864;52.526;19.672;2023-12-04T01:59:25;32.97;;;21.80;;
61907;SDS011;47864;52.526;19.672;2023-12-04T02:01:27;28.40;;;20.25;;
61907;SDS011;47864;52.526;19.672;2023-12-04T02:03:30;29.85;;;20.00;;
61907;SDS011;47864;52.526;19.672;2023-12-04T02:05:32;27.98;;;19.48;;
61907;SDS011;47864;52.526;19.672;2023-12-04T02:07:34;29.10;;;20.30;;
61907;SDS011;47864;52.526;19.672;2023-12-04T02:09:37;30.02;;;18.60;;
61907;SDS011;47864;52.526;19.672;2023-12-04T02:11:39;26.30;;;18.75;;
61907;SDS011;47864;52.526;19.672;2023-12-04T02:13:40;30.77;;;19.30;;
61907;SDS011;47864;52.526;19.672;2023-12-04T02:15:42;28.13;;;18.90;;
61907;SDS011;47864;52.526;19.672;2023-12-04T02:17:45;27.52;;;18.42;;
61907;SDS011;47864;52.526;19.672;2023-12-04T02:19:47;26.60;;;18.30;;
61907;SDS011;47864;52.526;19.672;2023-12-04T02:21:48;25.67;;;17.42;;
61907;SDS011;47864;52.526;19.672;2023-12-04T02:23:51;27.35;;;17.95;;
61907;SDS011;47864;52.526;19.672;2023-12-04T02:26:01;26.70;;;17.98;;
61907;SDS011;47864;52.526;19.672;2023-12-04T02:28:11;25.70;;;18.08;;
61907;SDS011;47864;52.526;19.672;2023-12-04T02:30:14;28.88;;;18.52;;
61907;SDS011;47864;52.526;19.672;2023-12-04T02:32:19;29.42;;;19.38;;
61907;SDS011;47864;52.526;19.672;2023-12-04T02:34:23;27.08;;;17.15;;
61907;SDS011;47864;52.526;19.672;2023-12-04T02:36:25;27.27;;;18.13;;
61907;SDS011;47864;52.526;19.672;2023-12-04T02:38:28;28.45;;;18.35;;
61907;SDS011;47864;52.526;19.672;2023-12-04T02:40:31;27.35;;;19.13;;
61907;SDS011;47864;52.526;19.672;2023-12-04T02:42:33;27.38;;;19.00;;
61907;SDS011;47864;52.526;19.672;2023-12-04T02:44:35;25.27;;;18.25;;
61907;SDS011;47864;52.526;19.672;2023-12-04T02:46:36;25.85;;;18.45;;
61907;SDS011;47864;52.526;19.672;2023-12-04T02:48:38;28.45;;;18.70;;
61907;SDS011;47864;52.526;19.672;2023-12-04T02:50:40;28.35;;;18.73;;
61907;SDS011;47864;52.526;19.672;2023-12-04T02:52:41;30.52;;;19.00;;
61907;SDS011;47864;52.526;19.672;2023-12-04T02:54:43;26.95;;;18.88;;
61907;SDS011;47864;52.526;19.672;2023-12-04T02:56:44;28.30;;;17.75;;
61907;SDS011;47864;52.526;19.672;2023-12-04T02:58:46;30.27;;;19.98;;
61907;SDS011;47864;52.526;19.672;2023-12-04T03:00:48;31.98;;;21.15;;
61907;SDS011;47864;52.526;19.672;2023-12-04T03:02:49;31.65;;;20.98;;
61907;SDS011;47864;52.526;19.672;2023-12-04T03:04:51;43.42;;;25.02;;
61907;SDS011;47864;52.526;19.672;2023-12-04T03:06:53;42.08;;;24.98;;
61907;SDS011;47864;52.526;19.672;2023-12-04T03:08:54;38.05;;;23.63;;
61907;SDS011;47864;52.526;19.672;2023-12-04T03:10:56;36.15;;;23.25;;
61907;SDS011;47864;52.526;19.672;2023-12-04T03:12:57;33.88;;;20.50;;
61907;SDS011;47864;52.526;19.672;2023-12-04T03:14:59;31.08;;;20.90;;
61907;SDS011;47864;52.526;19.672;2023-12-04T03:17:00;30.48;;;19.15;;
61907;SDS011;47864;52.526;19.672;2023-12-04T03:19:03;29.67;;;19.00;;
61907;SDS011;47864;52.526;19.672;2023-12-04T03:21:05;32.67;;;20.88;;
61907;SDS011;47864;52.526;19.672;2023-12-04T03:23:07;34.28;;;22.65;;
61907;SDS011;47864;52.526;19.672;2023-12-04T03:25:09;32.65;;;21.27;;
61907;SDS011;47864;52.526;19.672;2023-12-04T03:27:11;33.10;;;21.38;;
61907;SDS011;47864;52.526;19.672;2023-12-04T03:29:12;33.05;;;20.48;;
61907;SDS011;47864;52.526;19.672;2023-12-04T03:31:14;31.73;;;20.90;;
61907;SDS011;47864;52.526;19.672;2023-12-04T03:33:16;29.23;;;19.67;;
61907;SDS011;47864;52.526;19.672;2023-12-04T03:35:17;31.15;;;20.63;;
61907;SDS011;47864;52.526;19.672;2023-12-04T03:37:19;30.42;;;21.35;;
61907;SDS011;47864;52.526;19.672;2023-12-04T03:39:21;34.72;;;24.52;;
61907;SDS011;47864;52.526;19.672;2023-12-04T03:41:22;31.80;;;22.55;;
61907;SDS011;47864;52.526;19.672;2023-12-04T03:43:24;33.22;;;21.67;;
61907;SDS011;47864;52.526;19.672;2023-12-04T03:45:25;31.88;;;21.80;;
61907;SDS011;47864;52.526;19.672;2023-12-04T03:47:27;35.00;;;22.67;;
61907;SDS011;47864;52.526;19.672;2023-12-04T03:49:29;32.58;;;22.27;;
61907;SDS011;47864;52.526;19.672;2023-12-04T03:51:30;33.28;;;20.77;;
61907;SDS011;47864;52.526;19.672;2023-12-04T03:53:32;36.17;;;23.52;;
61907;SDS011;47864;52.526;19.672;2023-12-04T03:55:35;37.50;;;22.77;;
61907;SDS011;47864;52.526;19.672;2023-12-04T03:57:36;36.25;;;23.48;;
61907;SDS011;47864;52.526;19.672;2023-12-04T03:59:38;35.47;;;22.35;;
61907;SDS011;47864;52.526;19.672;2023-12-04T04:01:40;36.75;;;23.60;;
61907;SDS011;47864;52.526;19.672;2023-12-04T04:03:41;38.33;;;24.10;;
61907;SDS011;47864;52.526;19.672;2023-12-04T04:05:46;30.92;;;21.45;;
61907;SDS011;47864;52.526;19.672;2023-12-04T04:07:48;37.70;;;23.38;;
61907;SDS011;47864;52.526;19.672;2023-12-04T04:09:49;35.63;;;22.90;;
61907;SDS011;47864;52.526;19.672;2023-12-04T04:11:51;45.60;;;27.65;;
61907;SDS011;47864;52.526;19.672;2023-12-04T04:13:53;37.90;;;24.35;;
61907;SDS011;47864;52.526;19.672;2023-12-04T04:15:54;40.97;;;25.90;;
61907;SDS011;47864;52.526;19.672;2023-12-04T04:17:56;46.20;;;27.33;;
61907;SDS011;47864;52.526;19.672;2023-12-04T04:19:58;39.35;;;24.40;;
61907;SDS011;47864;52.526;19.672;2023-12-04T04:22:00;36.92;;;23.33;;
61907;SDS011;47864;52.526;19.672;2023-12-04T04:24:02;37.53;;;25.08;;
61907;SDS011;47864;52.526;19.672;2023-12-04T04:26:04;36.63;;;23.38;;
61907;SDS011;47864;52.526;19.672;2023-12-04T04:28:06;37.10;;;24.60;;
61907;SDS011;47864;52.526;19.672;2023-12-04T04:30:07;38.50;;;23.98;;
61907;SDS011;47864;52.526;19.672;2023-12-04T04:32:09;39.65;;;25.33;;
61907;SDS011;47864;52.526;19.672;2023-12-04T04:34:14;39.08;;;25.20;;
61907;SDS011;47864;52.526;19.672;2023-12-04T04:36:16;44.50;;;26.42;;
61907;SDS011;47864;52.526;19.672;2023-12-04T04:38:17;43.67;;;26.58;;
61907;SDS011;47864;52.526;19.672;2023-12-04T04:40:19;41.75;;;27.10;;
61907;SDS011;47864;52.526;19.672;2023-12-04T04:42:22;38.67;;;25.25;;
61907;SDS011;47864;52.526;19.672;2023-12-04T04:44:23;39.22;;;25.48;;
61907;SDS011;47864;52.526;19.672;2023-12-04T04:46:28;39.90;;;24.98;;
61907;SDS011;47864;52.526;19.672;2023-12-04T04:48:30;40.63;;;25.23;;
61907;SDS011;47864;52.526;19.672;2023-12-04T04:50:31;39.70;;;24.30;;
61907;SDS011;47864;52.526;19.672;2023-12-04T04:52:33;37.92;;;25.52;;
61907;SDS011;47864;52.526;19.672;2023-12-04T04:54:35;38.00;;;24.38;;
61907;SDS011;47864;52.526;19.672;2023-12-04T04:56:36;39.90;;;24.55;;
61907;SDS011;47864;52.526;19.672;2023-12-04T04:58:38;41.72;;;25.67;;
61907;SDS011;47864;52.526;19.672;2023-12-04T05:00:39;40.42;;;25.38;;
61907;SDS011;47864;52.526;19.672;2023-12-04T05:02:41;40.13;;;25.33;;
61907;SDS011;47864;52.526;19.672;2023-12-04T05:04:43;41.65;;;26.15;;
61907;SDS011;47864;52.526;19.672;2023-12-04T05:06:45;41.78;;;25.55;;
61907;SDS011;47864;52.526;19.672;2023-12-04T05:08:46;39.40;;;25.35;;
61907;SDS011;47864;52.526;19.672;2023-12-04T05:10:48;42.03;;;25.48;;
61907;SDS011;47864;52.526;19.672;2023-12-04T05:12:50;38.05;;;24.67;;
61907;SDS011;47864;52.526;19.672;2023-12-04T05:14:51;40.58;;;26.13;;
61907;SDS011;47864;52.526;19.672;2023-12-04T05:16:53;39.28;;;24.80;;
61907;SDS011;47864;52.526;19.672;2023-12-04T05:18:54;39.28;;;25.20;;
61907;SDS011;47864;52.526;19.672;2023-12-04T05:20:56;41.38;;;25.15;;
61907;SDS011;47864;52.526;19.672;2023-12-04T05:22:58;40.58;;;25.60;;
61907;SDS011;47864;52.526;19.672;2023-12-04T05:24:59;39.67;;;24.95;;
61907;SDS011;47864;52.526;19.672;2023-12-04T05:27:01;43.15;;;25.92;;
61907;SDS011;47864;52.526;19.672;2023-12-04T05:29:03;42.10;;;25.70;;
61907;SDS011;47864;52.526;19.672;2023-12-04T05:31:05;45.47;;;28.83;;
61907;SDS011;47864;52.526;19.672;2023-12-04T05:33:07;44.95;;;26.33;;
61907;SDS011;47864;52.526;19.672;2023-12-04T05:35:09;43.45;;;26.20;;
61907;SDS011;47864;52.526;19.672;2023-12-04T05:37:10;38.55;;;24.67;;
61907;SDS011;47864;52.526;19.672;2023-12-04T05:39:12;44.88;;;29.35;;
61907;SDS011;47864;52.526;19.672;2023-12-04T05:41:14;44.10;;;28.10;;
61907;SDS011;47864;52.526;19.672;2023-12-04T05:43:15;42.25;;;26.63;;
61907;SDS011;47864;52.526;19.672;2023-12-04T05:45:17;46.58;;;27.23;;
61907;SDS011;47864;52.526;19.672;2023-12-04T05:47:19;43.95;;;29.67;;
61907;SDS011;47864;52.526;19.672;2023-12-04T05:49:21;44.67;;;28.98;;
61907;SDS011;47864;52.526;19.672;2023-12-04T05:51:23;47.83;;;29.58;;
61907;SDS011;47864;52.526;19.672;2023-12-04T05:53:24;47.58;;;28.42;;
61907;SDS011;47864;52.526;19.672;2023-12-04T05:55:26;43.30;;;26.58;;
61907;SDS011;47864;52.526;19.672;2023-12-04T05:57:28;46.42;;;27.63;;
61907;SDS011;47864;52.526;19.672;2023-12-04T05:59:29;47.22;;;28.48;;
61907;SDS011;47864;52.526;19.672;2023-12-04T06:01:31;46.15;;;28.45;;
61907;SDS011;47864;52.526;19.672;2023-12-04T06:03:33;44.47;;;28.42;;
61907;SDS011;47864;52.526;19.672;2023-12-04T06:05:34;55.45;;;31.80;;
61907;SDS011;47864;52.526;19.672;2023-12-04T06:07:36;49.85;;;30.20;;
61907;SDS011;47864;52.526;19.672;2023-12-04T06:09:38;46.58;;;28.60;;
61907;SDS011;47864;52.526;19.672;2023-12-04T06:11:40;64.63;;;38.17;;
61907;SDS011;47864;52.526;19.672;2023-12-04T06:13:44;51.58;;;32.15;;
61907;SDS011;47864;52.526;19.672;2023-12-04T06:15:46;57.05;;;34.38;;
61907;SDS011;47864;52.526;19.672;2023-12-04T06:17:48;48.78;;;30.15;;
61907;SDS011;47864;52.526;19.672;2023-12-04T06:19:49;48.00;;;28.98;;
61907;SDS011;47864;52.526;19.672;2023-12-04T06:21:51;48.72;;;29.90;;
61907;SDS011;47864;52.526;19.672;2023-12-04T06:23:53;50.78;;;29.33;;
61907;SDS011;47864;52.526;19.672;2023-12-04T06:25:54;48.95;;;29.05;;
61907;SDS011;47864;52.526;19.672;2023-12-04T06:27:57;51.67;;;30.08;;
61907;SDS011;47864;52.526;19.672;2023-12-04T06:29:59;54.25;;;30.90;;
61907;SDS011;47864;52.526;19.672;2023-12-04T06:32:00;53.40;;;29.48;;
61907;SDS011;47864;52.526;19.672;2023-12-04T06:34:02;50.60;;;29.33;;
61907;SDS011;47864;52.526;19.672;2023-12-04T06:36:05;46.10;;;28.55;;
61907;SDS011;47864;52.526;19.672;2023-12-04T06:38:08;48.83;;;28.52;;
61907;SDS011;47864;52.526;19.672;2023-12-04T06:40:10;52.63;;;30.02;;
61907;SDS011;47864;52.526;19.672;2023-12-04T06:42:12;52.97;;;30.27;;
61907;SDS011;47864;52.526;19.672;2023-12-04T06:44:14;50.30;;;28.70;;
61907;SDS011;47864;52.526;19.672;2023-12-04T06:46:15;50.40;;;29.23;;
61907;SDS011;47864;52.526;19.672;2023-12-04T06:48:19;50.55;;;29.40;;
61907;SDS011;47864;52.526;19.672;2023-12-04T06:50:21;48.47;;;29.80;;
61907;SDS011;47864;52.526;19.672;2023-12-04T06:52:22;52.45;;;31.38;;
61907;SDS011;47864;52.526;19.672;2023-12-04T06:54:24;57.15;;;32.97;;
61907;SDS011;47864;52.526;19.672;2023-12-04T06:56:26;49.17;;;28.90;;
61907;SDS011;47864;52.526;19.672;2023-12-04T06:58:27;48.15;;;29.23;;
61907;SDS011;47864;52.526;19.672;2023-12-04T07:00:29;50.85;;;31.05;;
61907;SDS011;47864;52.526;19.672;2023-12-04T07:02:31;54.92;;;33.72;;
61907;SDS011;47864;52.526;19.672;2023-12-04T07:04:33;53.13;;;32.33;;
61907;SDS011;47864;52.526;19.672;2023-12-04T07:06:35;52.47;;;31.50;;
61907;SDS011;47864;52.526;19.672;2023-12-04T07:08:37;49.65;;;30.30;;
61907;SDS011;47864;52.526;19.672;2023-12-04T07:10:39;48.08;;;28.33;;
61907;SDS011;47864;52.526;19.672;2023-12-04T07:12:41;49.53;;;30.30;;
61907;SDS011;47864;52.526;19.672;2023-12-04T07:14:43;47.33;;;28.52;;
61907;SDS011;47864;52.526;19.672;2023-12-04T07:16:44;49.42;;;28.50;;
61907;SDS011;47864;52.526;19.672;2023-12-04T07:18:46;47.65;;;28.40;;
61907;SDS011;47864;52.526;19.672;2023-12-04T07:20:48;50.58;;;31.50;;
61907;SDS011;47864;52.526;19.672;2023-12-04T07:22:49;52.00;;;30.70;;
61907;SDS011;47864;52.526;19.672;2023-12-04T07:24:51;52.53;;;30.95;;
61907;SDS011;47864;52.526;19.672;2023-12-04T07:26:53;51.65;;;31.02;;
61907;SDS011;47864;52.526;19.672;2023-12-04T07:28:54;50.15;;;29.15;;
61907;SDS011;47864;52.526;19.672;2023-12-04T07:30:56;53.97;;;30.77;;
61907;SDS011;47864;52.526;19.672;2023-12-04T07:32:57;50.83;;;29.90;;
61907;SDS011;47864;52.526;19.672;2023-12-04T07:34:59;56.00;;;31.98;;
61907;SDS011;47864;52.526;19.672;2023-12-04T07:37:01;51.75;;;30.27;;
61907;SDS011;47864;52.526;19.672;2023-12-04T07:39:03;53.78;;;30.95;;
61907;SDS011;47864;52.526;19.672;2023-12-04T07:41:05;50.47;;;30.20;;
61907;SDS011;47864;52.526;19.672;2023-12-04T07:43:07;52.65;;;31.25;;
61907;SDS011;47864;52.526;19.672;2023-12-04T07:45:08;53.92;;;32.65;;
61907;SDS011;47864;52.526;19.672;2023-12-04T07:47:10;58.72;;;35.78;;
61907;SDS011;47864;52.526;19.672;2023-12-04T07:49:12;54.13;;;32.03;;
61907;SDS011;47864;52.526;19.672;2023-12-04T07:51:14;53.50;;;34.00;;
61907;SDS011;47864;52.526;19.672;2023-12-04T07:53:15;52.30;;;33.03;;
61907;SDS011;47864;52.526;19.672;2023-12-04T07:55:17;51.10;;;31.17;;
61907;SDS011;47864;52.526;19.672;2023-12-04T07:57:19;53.05;;;31.40;;
61907;SDS011;47864;52.526;19.672;2023-12-04T07:59:20;48.17;;;28.00;;
61907;SDS011;47864;52.526;19.672;2023-12-04T08:01:23;47.15;;;27.83;;
61907;SDS011;47864;52.526;19.672;2023-12-04T08:03:25;48.45;;;29.63;;
61907;SDS011;47864;52.526;19.672;2023-12-04T08:05:26;48.65;;;29.02;;
61907;SDS011;47864;52.526;19.672;2023-12-04T08:07:28;52.30;;;31.80;;
61907;SDS011;47864;52.526;19.672;2023-12-04T08:09:30;42.83;;;27.33;;
61907;SDS011;47864;52.526;19.672;2023-12-04T08:11:31;49.90;;;29.05;;
61907;SDS011;47864;52.526;19.672;2023-12-04T08:13:33;47.40;;;28.45;;
61907;SDS011;47864;52.526;19.672;2023-12-04T08:15:34;50.75;;;30.40;;
61907;SDS011;47864;52.526;19.672;2023-12-04T08:17:36;55.08;;;32.10;;
61907;SDS011;47864;52.526;19.672;2023-12-04T08:19:38;51.25;;;30.83;;
61907;SDS011;47864;52.526;19.672;2023-12-04T08:21:39;53.65;;;30.95;;
61907;SDS011;47864;52.526;19.672;2023-12-04T08:23:41;51.30;;;30.05;;
61907;SDS011;47864;52.526;19.672;2023-12-04T08:25:43;52.08;;;31.45;;
61907;SDS011;47864;52.526;19.672;2023-12-04T08:27:44;49.72;;;28.85;;
61907;SDS011;47864;52.526;19.672;2023-12-04T08:29:46;70.40;;;39.30;;
61907;SDS011;47864;52.526;19.672;2023-12-04T08:31:48;88.88;;;48.88;;
61907;SDS011;47864;52.526;19.672;2023-12-04T08:33:49;93.93;;;51.15;;
61907;SDS011;47864;52.526;19.672;2023-12-04T08:35:51;72.82;;;42.13;;
61907;SDS011;47864;52.526;19.672;2023-12-04T08:37:53;71.97;;;40.90;;
61907;SDS011;47864;52.526;19.672;2023-12-04T08:39:54;61.63;;;35.35;;
61907;SDS011;47864;52.526;19.672;2023-12-04T08:41:58;62.35;;;35.05;;
61907;SDS011;47864;52.526;19.672;2023-12-04T08:44:05;59.25;;;35.22;;
61907;SDS011;47864;52.526;19.672;2023-12-04T08:46:07;52.90;;;31.13;;
61907;SDS011;47864;52.526;19.672;2023-12-04T08:48:12;52.58;;;31.00;;
61907;SDS011;47864;52.526;19.672;2023-12-04T08:50:14;55.13;;;31.33;;
61907;SDS011;47864;52.526;19.672;2023-12-04T08:52:16;53.22;;;30.60;;
61907;SDS011;47864;52.526;19.672;2023-12-04T08:54:17;86.88;;;42.45;;
61907;SDS011;47864;52.526;19.672;2023-12-04T08:56:19;64.18;;;35.42;;
61907;SDS011;47864;52.526;19.672;2023-12-04T08:58:31;69.82;;;40.35;;
61907;SDS011;47864;52.526;19.672;2023-12-04T09:00:33;60.05;;;34.38;;
61907;SDS011;47864;52.526;19.672;2023-12-04T09:02:34;60.30;;;33.28;;
61907;SDS011;47864;52.526;19.672;2023-12-04T09:04:37;61.33;;;34.47;;
61907;SDS011;47864;52.526;19.672;2023-12-04T09:06:39;56.55;;;32.75;;
61907;SDS011;47864;52.526;19.672;2023-12-04T09:08:44;56.45;;;32.90;;
61907;SDS011;47864;52.526;19.672;2023-12-04T09:11:00;64.45;;;33.40;;
61907;SDS011;47864;52.526;19.672;2023-12-04T09:13:20;54.72;;;30.58;;
61907;SDS011;47864;52.526;19.672;2023-12-04T09:15:22;58.17;;;30.92;;
61907;SDS011;47864;52.526;19.672;2023-12-04T09:17:23;56.47;;;31.75;;
61907;SDS011;47864;52.526;19.672;2023-12-04T09:19:30;52.13;;;31.25;;
61907;SDS011;47864;52.526;19.672;2023-12-04T09:21:32;57.00;;;30.55;;
61907;SDS011;47864;52.526;19.672;2023-12-04T09:23:34;64.65;;;35.30;;
61907;SDS011;47864;52.526;19.672;2023-12-04T09:25:37;50.50;;;30.15;;
61907;SDS011;47864;52.526;19.672;2023-12-04T09:27:39;51.72;;;29.40;;
61907;SDS011;47864;52.526;19.672;2023-12-04T09:29:41;53.03;;;29.95;;
61907;SDS011;47864;52.526;19.672;2023-12-04T09:31:43;58.40;;;31.63;;
61907;SDS011;47864;52.526;19.672;2023-12-04T09:33:44;48.22;;;28.10;;
61907;SDS011;47864;52.526;19.672;2023-12-04T09:35:46;55.10;;;30.80;;
61907;SDS011;47864;52.526;19.672;2023-12-04T09:37:48;55.03;;;30.40;;
61907;SDS011;47864;52.526;19.672;2023-12-04T09:39:49;52.17;;;30.20;;
61907;SDS011;47864;52.526;19.672;2023-12-04T09:41:51;58.45;;;31.67;;
61907;SDS011;47864;52.526;19.672;2023-12-04T09:43:53;55.47;;;31.50;;
61907;SDS011;47864;52.526;19.672;2023-12-04T09:45:55;59.85;;;33.05;;
61907;SDS011;47864;52.526;19.672;2023-12-04T09:47:57;52.60;;;29.33;;
61907;SDS011;47864;52.526;19.672;2023-12-04T09:50:00;109.53;;;53.67;;
61907;SDS011;47864;52.526;19.672;2023-12-04T09:52:02;57.53;;;31.85;;
61907;SDS011;47864;52.526;19.672;2023-12-04T09:54:05;50.78;;;29.35;;
61907;SDS011;47864;52.526;19.672;2023-12-04T09:56:09;48.17;;;27.88;;
61907;SDS011;47864;52.526;19.672;2023-12-04T09:58:11;51.53;;;30.03;;
61907;SDS011;47864;52.526;19.672;2023-12-04T10:00:16;53.65;;;29.92;;
61907;SDS011;47864;52.526;19.672;2023-12-04T10:02:19;54.87;;;30.67;;
61907;SDS011;47864;52.526;19.672;2023-12-04T10:04:21;48.28;;;29.92;;
61907;SDS011;47864;52.526;19.672;2023-12-04T10:06:27;45.97;;;28.17;;
61907;SDS011;47864;52.526;19.672;2023-12-04T10:08:29;65.22;;;35.85;;
61907;SDS011;47864;52.526;19.672;2023-12-04T10:10:32;68.90;;;38.25;;
61907;SDS011;47864;52.526;19.672;2023-12-04T10:12:35;55.10;;;31.05;;
61907;SDS011;47864;52.526;19.672;2023-12-04T10:16:39;52.70;;;28.13;;
61907;SDS011;47864;52.526;19.672;2023-12-04T10:18:40;53.33;;;29.85;;
61907;SDS011;47864;52.526;19.672;2023-12-04T10:20:55;79.03;;;42.05;;
61907;SDS011;47864;52.526;19.672;2023-12-04T10:22:58;74.05;;;40.00;;
61907;SDS011;47864;52.526;19.672;2023-12-04T10:25:08;59.80;;;32.55;;
61907;SDS011;47864;52.526;19.672;2023-12-04T10:27:15;53.53;;;31.98;;
61907;SDS011;47864;52.526;19.672;2023-12-04T10:29:16;52.47;;;31.85;;
61907;SDS011;47864;52.526;19.672;2023-12-04T10:31:18;55.42;;;31.80;;
61907;SDS011;47864;52.526;19.672;2023-12-04T10:33:20;53.17;;;31.70;;
61907;SDS011;47864;52.526;19.672;2023-12-04T10:35:21;52.53;;;31.25;;
61907;SDS011;47864;52.526;19.672;2023-12-04T10:37:23;53.03;;;31.70;;
61907;SDS011;47864;52.526;19.672;2023-12-04T10:39:25;54.47;;;32.85;;
61907;SDS011;47864;52.526;19.672;2023-12-04T10:41:27;52.75;;;31.85;;
61907;SDS011;47864;52.526;19.672;2023-12-04T10:43:28;47.63;;;30.13;;
61907;SDS011;47864;52.526;19.672;2023-12-04T10:45:30;53.00;;;31.58;;
61907;SDS011;47864;52.526;19.672;2023-12-04T10:47:31;50.60;;;29.58;;
61907;SDS011;47864;52.526;19.672;2023-12-04T10:51:37;55.70;;;32.22;;
61907;SDS011;47864;52.526;19.672;2023-12-04T10:53:39;64.22;;;38.05;;
61907;SDS011;47864;52.526;19.672;2023-12-04T10:55:41;54.13;;;32.28;;
61907;SDS011;47864;52.526;19.672;2023-12-04T10:57:44;54.65;;;32.00;;
61907;SDS011;47864;52.526;19.672;2023-12-04T10:59:47;51.22;;;31.42;;
61907;SDS011;47864;52.526;19.672;2023-12-04T11:01:53;52.92;;;30.65;;
61907;SDS011;47864;52.526;19.672;2023-12-04T11:03:58;53.05;;;33.22;;
61907;SDS011;47864;52.526;19.672;2023-12-04T11:06:01;50.88;;;29.52;;
61907;SDS011;47864;52.526;19.672;2023-12-04T11:08:03;51.25;;;30.00;;
61907;SDS011;47864;52.526;19.672;2023-12-04T11:10:20;50.08;;;29.73;;
61907;SDS011;47864;52.526;19.672;2023-12-04T11:12:24;52.10;;;30.55;;
61907;SDS011;47864;52.526;19.672;2023-12-04T11:16:42;49.28;;;28.95;;
61907;SDS011;47864;52.526;19.672;2023-12-04T11:18:51;47.00;;;29.48;;
61907;SDS011;47864;52.526;19.672;2023-12-04T11:21:09;51.85;;;30.40;;
61907;SDS011;47864;52.526;19.672;2023-12-04T11:23:13;49.15;;;29.50;;
61907;SDS011;47864;52.526;19.672;2023-12-04T11:25:15;46.97;;;28.75;;
61907;SDS011;47864;52.526;19.672;2023-12-04T11:27:17;45.13;;;28.20;;
61907;SDS011;47864;52.526;19.672;2023-12-04T11:29:20;47.53;;;29.15;;
61907;SDS011;47864;52.526;19.672;2023-12-04T11:31:23;56.55;;;32.88;;
61907;SDS011;47864;52.526;19.672;2023-12-04T11:33:26;52.78;;;31.98;;
61907;SDS011;47864;52.526;19.672;2023-12-04T11:35:28;51.38;;;31.50;;
61907;SDS011;47864;52.526;19.672;2023-12-04T11:37:29;49.80;;;29.92;;
61907;SDS011;47864;52.526;19.672;2023-12-04T11:39:33;47.90;;;29.58;;
61907;SDS011;47864;52.526;19.672;2023-12-04T11:41:37;57.15;;;34.35;;
61907;SDS011;47864;52.526;19.672;2023-12-04T11:43:38;46.45;;;28.35;;
61907;SDS011;47864;52.526;19.672;2023-12-04T11:45:43;51.63;;;30.98;;
61907;SDS011;47864;52.526;19.672;2023-12-04T11:47:48;51.53;;;29.08;;
61907;SDS011;47864;52.526;19.672;2023-12-04T11:49:57;50.70;;;31.90;;
61907;SDS011;47864;52.526;19.672;2023-12-04T11:52:08;50.70;;;31.48;;